createdAt,value
2022-11-16T00:02:05.206Z,11.24
2022-11-16T00:05:09.071Z,11.25
2022-11-16T00:08:13.096Z,11.42
2022-11-16T00:11:17.101Z,11.72
2022-11-16T00:14:21.541Z,11.88
2022-11-16T00:17:27.214Z,11.96
2022-11-16T00:20:31.114Z,12.25
2022-11-16T00:23:35.185Z,12.09
2022-11-16T00:26:39.352Z,12.26
2022-11-16T00:29:43.521Z,12.53
2022-11-16T00:32:47.632Z,12.49
2022-11-16T00:35:52.111Z,12.54
2022-11-16T00:38:56.098Z,12.83
2022-11-16T00:42:00.499Z,12.87
2022-11-16T00:45:04.583Z,12.83
2022-11-16T00:48:08.464Z,12.61
2022-11-16T00:51:13.058Z,12.91
2022-11-16T00:54:17.055Z,13.15
2022-11-16T00:57:21.305Z,13.06
2022-11-16T01:00:25.515Z,13.12
2022-11-16T01:03:29.705Z,13.23
2022-11-16T01:10:01.989Z,13.09
2022-11-16T01:13:06.134Z,13.21
2022-11-16T01:16:09.909Z,13.09
2022-11-16T01:19:14.373Z,12.95
2022-11-16T01:22:18.436Z,12.85
2022-11-16T01:25:22.465Z,13.02
2022-11-16T01:28:26.585Z,13.03
2022-11-16T01:31:31.037Z,13.23
2022-11-16T01:34:35.369Z,13.24
2022-11-16T02:15:54.240Z,12.86
2022-11-16T02:18:58.237Z,12.72
2022-11-16T02:22:05.645Z,12.91
2022-11-16T02:25:09.517Z,12.95
2022-11-16T02:28:13.638Z,13.01
2022-11-16T02:31:18.068Z,13.12
2022-11-16T02:34:21.905Z,13.15
2022-11-16T02:37:25.660Z,12.88
2022-11-16T02:40:29.855Z,13.09
2022-11-16T02:43:33.846Z,13.17
2022-11-16T02:46:37.669Z,13.29
2022-11-16T02:49:41.353Z,13.37
2022-11-16T02:52:45.125Z,13.40
2022-11-16T02:55:49.547Z,13.16
2022-11-16T02:58:55.365Z,12.98
2022-11-16T03:01:59.357Z,13.19
2022-11-16T03:05:03.464Z,12.96
2022-11-16T03:56:43.943Z,13.25
2022-11-16T04:03:10.440Z,13.47
2022-11-16T04:06:14.521Z,13.48
2022-11-16T04:09:18.782Z,13.49
2022-11-16T04:12:24.061Z,13.32
2022-11-16T04:15:28.350Z,12.57
2022-11-16T04:18:32.556Z,12.90
2022-11-16T04:21:36.682Z,13.39
2022-11-16T04:24:40.794Z,13.15
2022-11-16T04:27:44.996Z,13.31
2022-11-16T04:30:49.449Z,13.50
2022-11-16T04:33:57.090Z,13.62
2022-11-16T04:37:01.058Z,13.47
2022-11-16T04:40:04.907Z,13.66
2022-11-16T04:43:09.185Z,13.45
2022-11-16T04:46:15.842Z,13.31
2022-11-16T05:03:13.907Z,12.71
2022-11-16T05:06:18.034Z,13.05
2022-11-16T05:09:22.050Z,13.04
2022-11-16T05:12:25.953Z,12.92
2022-11-16T05:15:29.838Z,13.22
2022-11-16T05:18:34.045Z,13.35
2022-11-16T05:21:38.374Z,12.84
2022-11-16T05:24:42.716Z,13.08
2022-11-16T05:27:46.473Z,13.17
2022-11-16T05:30:50.600Z,13.21
2022-11-16T05:37:22.997Z,13.15
2022-11-16T05:40:26.893Z,12.80
2022-11-16T05:43:30.882Z,13.09
2022-11-16T05:46:34.891Z,12.97
2022-11-16T05:49:38.815Z,13.32
2022-11-16T05:52:42.846Z,13.41
2022-11-16T05:55:46.866Z,13.46
2022-11-16T05:58:52.154Z,13.45
2022-11-16T06:01:56.249Z,13.21
2022-11-16T06:05:00.035Z,13.16
2022-11-16T06:08:03.816Z,13.10
2022-11-16T06:11:08.699Z,13.27
2022-11-16T06:14:12.474Z,13.04
2022-11-16T06:32:10.678Z,13.54
2022-11-16T06:35:14.826Z,13.54
2022-11-16T06:38:20.581Z,13.30
2022-11-16T06:41:25.392Z,13.10
2022-11-16T06:48:10.933Z,13.35
2022-11-16T06:58:24.671Z,13.68
2022-11-16T07:11:58.492Z,13.47
2022-11-16T07:15:02.431Z,13.65
2022-11-16T07:18:06.477Z,13.65
2022-11-16T07:21:10.852Z,13.38
2022-11-16T07:24:17.321Z,13.46
2022-11-16T07:27:21.425Z,13.69
2022-11-16T07:30:25.328Z,13.62
2022-11-16T07:33:29.170Z,13.27
2022-11-16T07:36:33.200Z,13.44
2022-11-16T07:39:37.439Z,13.82
2022-11-16T07:42:41.368Z,13.93
2022-11-16T07:45:51.343Z,14.12
2022-11-16T07:48:57.452Z,13.92
2022-11-16T07:52:02.624Z,13.62
2022-11-16T07:55:06.602Z,13.76
2022-11-16T07:58:10.980Z,14.09
2022-11-16T08:01:16.525Z,14.07
2022-11-16T08:04:22.029Z,13.69
2022-11-16T08:07:33.297Z,14.02
2022-11-16T08:10:38.108Z,14.31
2022-11-16T08:13:42.600Z,14.46
2022-11-16T08:16:48.417Z,14.07
2022-11-16T08:19:56.041Z,14.31
2022-11-16T08:23:03.511Z,14.25
2022-11-16T08:26:09.811Z,14.41
2022-11-16T08:29:14.066Z,14.23
2022-11-16T08:35:48.460Z,13.78
2022-11-16T08:38:55.401Z,14.17
2022-11-16T08:42:00.142Z,14.14
2022-11-16T08:45:04.736Z,14.22
2022-11-16T08:48:10.905Z,14.32
2022-11-16T08:51:25.375Z,14.29
2022-11-16T08:54:39.447Z,14.38
2022-11-16T08:57:47.000Z,14.31
2022-11-16T09:00:51.556Z,14.55
2022-11-16T09:04:01.479Z,14.56
2022-11-16T09:07:06.928Z,14.20
2022-11-16T09:10:17.539Z,13.46
2022-11-16T09:13:22.685Z,14.21
2022-11-16T09:16:29.615Z,14.21
2022-11-16T09:19:33.897Z,14.62
2022-11-16T09:22:39.787Z,14.01
2022-11-16T09:25:45.413Z,14.47
2022-11-16T09:28:55.615Z,14.71
2022-11-16T09:32:17.666Z,14.80
2022-11-16T09:59:17.851Z,13.81
2022-11-16T10:09:32.800Z,14.56
2022-11-16T10:13:01.582Z,14.62
2022-11-16T10:30:02.431Z,14.68
2022-11-16T10:46:48.684Z,14.88
2022-11-16T11:10:57.026Z,15.53
2022-11-16T11:16:49.566Z,15.41
2022-11-16T11:19:53.539Z,15.30
2022-11-16T11:22:57.360Z,15.41
2022-11-16T11:26:01.328Z,15.71
2022-11-16T11:29:05.544Z,15.91
2022-11-16T11:32:09.652Z,15.94
2022-11-16T11:35:13.682Z,15.95
2022-11-16T11:38:17.675Z,16.13
2022-11-16T11:41:21.681Z,16.11
2022-11-16T11:44:25.715Z,16.14
2022-11-16T11:47:56.329Z,16.23
2022-11-16T11:50:55.306Z,16.30
2022-11-16T11:54:03.669Z,16.20
2022-11-16T11:57:08.217Z,16.22
2022-11-16T12:00:21.016Z,16.25
2022-11-16T12:03:25.254Z,16.16
2022-11-16T12:06:29.359Z,15.94
2022-11-16T12:09:33.130Z,15.90
2022-11-16T12:12:39.371Z,15.46
2022-11-16T12:15:44.884Z,15.29
2022-11-16T12:18:50.283Z,15.57
2022-11-16T12:21:54.191Z,15.42
2022-11-16T12:24:58.118Z,15.40
2022-11-16T12:28:02.320Z,15.00
2022-11-16T12:31:06.357Z,15.11
2022-11-16T12:34:10.572Z,15.41
2022-11-16T12:37:14.593Z,15.48
2022-11-16T12:40:18.817Z,15.31
2022-11-16T12:43:22.913Z,14.99
2022-11-16T12:46:26.843Z,15.21
2022-11-16T12:49:31.003Z,15.60
2022-11-16T12:52:36.409Z,15.58
2022-11-16T12:55:40.284Z,15.52
2022-11-16T12:58:44.059Z,15.69
2022-11-16T13:05:20.675Z,15.81
2022-11-16T13:08:24.611Z,15.62
2022-11-16T14:09:39.155Z,16.03
2022-11-16T14:16:12.052Z,16.51
2022-11-16T14:19:16.943Z,16.47
2022-11-16T14:22:21.133Z,16.54
2022-11-16T14:25:24.943Z,16.39
2022-11-16T14:28:29.178Z,16.43
2022-11-16T14:31:33.285Z,16.13
2022-11-16T14:34:37.293Z,16.08
2022-11-16T14:37:41.158Z,15.93
2022-11-16T14:40:45.065Z,15.88
2022-11-16T14:43:49.107Z,15.99
2022-11-16T14:46:52.934Z,15.91
2022-11-16T14:49:57.123Z,15.64
2022-11-16T14:53:03.082Z,15.80
2022-11-16T14:56:11.500Z,15.55
2022-11-16T14:59:18.700Z,15.73
2022-11-16T15:02:23.260Z,15.85
2022-11-16T15:05:29.861Z,15.99
2022-11-16T15:08:35.402Z,15.77
2022-11-16T15:11:40.747Z,15.77
2022-11-16T15:14:47.320Z,15.69
2022-11-16T15:17:52.619Z,15.17
2022-11-16T15:20:56.947Z,15.43
2022-11-16T15:24:29.987Z,15.78
2022-11-16T15:27:24.663Z,15.80
2022-11-16T15:30:32.418Z,15.48
2022-11-16T15:33:36.933Z,15.40
2022-11-16T15:36:41.703Z,15.59
2022-11-16T15:39:48.528Z,15.45
2022-11-16T15:42:52.402Z,15.48
2022-11-16T15:45:56.067Z,15.53
2022-11-16T15:49:00.192Z,15.48
2022-11-16T15:52:04.013Z,15.18
2022-11-16T15:55:07.729Z,15.18
2022-11-16T15:58:11.684Z,15.21
2022-11-16T16:01:15.893Z,15.20
2022-11-16T16:04:19.852Z,15.13
2022-11-16T16:07:25.847Z,14.89
2022-11-16T16:19:35.206Z,14.39
2022-11-16T16:22:38.850Z,14.44
2022-11-16T16:25:50.103Z,14.42
2022-11-16T16:28:54.931Z,14.43
2022-11-16T16:31:58.797Z,14.38
2022-11-16T16:35:03.314Z,14.39
2022-11-16T16:38:07.516Z,14.32
2022-11-16T16:41:12.616Z,14.04
2022-11-16T16:44:16.490Z,13.97
2022-11-16T16:47:20.823Z,14.07
2022-11-16T16:50:27.803Z,14.07
2022-11-16T16:53:33.425Z,14.11
2022-11-16T16:56:38.885Z,14.03
2022-11-16T16:59:44.789Z,13.90
2022-11-16T17:02:51.070Z,13.94
2022-11-16T17:05:54.957Z,13.85
2022-11-16T17:08:59.348Z,13.93
2022-11-16T17:12:04.494Z,13.80
2022-11-16T17:15:08.651Z,13.95
2022-11-16T17:18:12.688Z,13.87
2022-11-16T17:24:45.241Z,13.61
2022-11-16T17:27:49.927Z,13.65
2022-11-16T17:30:53.716Z,13.72
2022-11-16T17:33:58.114Z,13.53
2022-11-16T17:47:58.019Z,13.55
2022-11-16T17:51:16.401Z,13.43
2022-11-16T17:58:02.091Z,13.48
2022-11-16T18:01:10.955Z,13.61
2022-11-16T18:07:41.385Z,13.44
2022-11-16T18:10:52.858Z,13.34
2022-11-16T18:14:09.927Z,13.08
2022-11-16T18:17:23.104Z,13.17
2022-11-16T18:20:44.422Z,13.17
2022-11-16T18:27:16.490Z,13.09
2022-11-16T18:37:46.495Z,13.04
2022-11-16T18:40:58.545Z,12.94
2022-11-16T18:44:09.251Z,13.01
2022-11-16T18:54:18.458Z,12.65
2022-11-16T18:57:24.182Z,12.74
2022-11-16T19:00:27.935Z,12.59
2022-11-16T19:03:33.612Z,12.49
2022-11-16T19:17:07.416Z,12.15
2022-11-16T19:20:12.854Z,12.56
2022-11-16T19:23:27.348Z,12.77
2022-11-16T19:26:35.502Z,12.74
2022-11-16T19:29:40.099Z,12.92
2022-11-16T19:32:49.772Z,12.71
2022-11-16T19:36:22.078Z,12.86
2022-11-16T20:04:19.226Z,12.63
2022-11-16T20:07:23.047Z,12.78
2022-11-16T20:17:15.709Z,12.24
2022-11-16T20:20:38.197Z,12.31
2022-11-16T20:23:43.404Z,12.43
2022-11-16T20:26:52.029Z,12.63
2022-11-16T20:29:58.913Z,12.94
2022-11-16T20:33:03.139Z,13.02
2022-11-16T20:36:08.796Z,13.27
2022-11-16T20:39:14.348Z,13.29
2022-11-16T20:42:18.938Z,13.20
2022-11-16T20:45:23.002Z,13.38
2022-11-16T20:48:29.661Z,13.06
2022-11-16T20:51:36.996Z,13.20
2022-11-16T20:54:41.282Z,13.22
2022-11-16T20:57:45.623Z,12.93
2022-11-16T21:00:49.998Z,13.00
2022-11-16T21:03:54.223Z,12.92
2022-11-16T21:06:58.591Z,13.01
2022-11-16T21:10:02.468Z,13.16
2022-11-16T21:13:06.658Z,12.99
2022-11-16T21:16:10.368Z,13.38
2022-11-16T21:19:14.493Z,13.34
2022-11-16T21:22:19.678Z,13.59
2022-11-16T21:25:25.882Z,13.65
2022-11-16T21:28:31.787Z,13.73
2022-11-16T21:31:36.124Z,13.52
2022-11-16T21:34:42.931Z,13.71
2022-11-16T21:37:47.393Z,13.76
2022-11-16T21:40:52.623Z,13.78
2022-11-16T21:43:58.286Z,13.75
2022-11-16T21:47:05.700Z,13.79
2022-11-16T21:50:34.770Z,13.23
2022-11-16T21:53:39.270Z,13.69
2022-11-16T21:56:43.693Z,13.68
2022-11-16T21:59:51.722Z,13.82
2022-11-16T22:06:24.175Z,13.47
2022-11-16T22:09:28.493Z,13.84
2022-11-16T22:12:32.390Z,13.98
2022-11-16T22:15:36.696Z,13.74
2022-11-16T22:18:40.801Z,13.78
2022-11-16T22:21:44.692Z,13.84
2022-11-16T22:24:48.767Z,13.96
2022-11-16T22:28:19.059Z,13.44
2022-11-16T22:31:16.791Z,13.74
2022-11-16T22:34:20.878Z,13.55
2022-11-16T22:37:24.974Z,13.91
2022-11-16T22:40:28.711Z,13.93
2022-11-16T22:43:33.492Z,13.74
2022-11-16T22:46:37.789Z,13.66
2022-11-16T22:49:41.991Z,13.37
2022-11-16T22:52:46.018Z,13.29
2022-11-16T22:55:50.008Z,13.34
2022-11-16T22:58:54.334Z,13.52
2022-11-16T23:01:58.474Z,13.69
2022-11-16T23:05:02.460Z,13.29
2022-11-16T23:08:06.336Z,13.12
2022-11-16T23:11:10.270Z,12.97
2022-11-16T23:14:13.743Z,13.10
2022-11-16T23:17:17.954Z,13.22
2022-11-16T23:20:21.902Z,13.10
2022-11-16T23:23:27.245Z,13.30
2022-11-16T23:26:31.258Z,13.40
2022-11-16T23:29:35.620Z,13.82
2022-11-16T23:32:39.949Z,13.66
2022-11-16T23:35:43.649Z,13.62
2022-11-16T23:38:47.528Z,13.49
2022-11-16T23:41:51.210Z,13.52
2022-11-16T23:44:55.262Z,13.64
2022-11-16T23:47:59.307Z,13.74
2022-11-16T23:51:03.279Z,13.68
2022-11-16T23:54:08.319Z,13.88
2022-11-16T23:57:12.350Z,13.91
